createdAt,value
2018-08-23T00:01:37.554Z,17.40
2018-08-23T00:04:08.699Z,17.23
2018-08-23T00:06:40.576Z,16.30
2018-08-23T00:09:09.841Z,16.20
2018-08-23T00:11:45.368Z,15.63
2018-08-23T00:14:15.586Z,16.97
2018-08-23T00:16:45.699Z,17.60
2018-08-23T00:19:16.076Z,14.43
2018-08-23T00:21:46.792Z,14.43
2018-08-23T00:24:24.104Z,15.17
2018-08-23T00:26:54.781Z,15.80
2018-08-23T00:29:26.954Z,17.00
2018-08-23T00:32:04.070Z,15.40
2018-08-23T00:34:36.563Z,15.83
2018-08-23T00:37:06.373Z,15.90
2018-08-23T00:39:35.375Z,16.80
2018-08-23T00:42:13.308Z,17.63
2018-08-23T00:44:57.774Z,15.60
2018-08-23T00:47:30.405Z,14.70
2018-08-23T00:49:59.720Z,16.93
2018-08-23T00:52:40.966Z,17.57
2018-08-23T00:55:25.226Z,17.17
2018-08-23T00:57:54.579Z,16.70
2018-08-23T01:00:25.187Z,17.10
2018-08-23T01:03:01.361Z,16.73
2018-08-23T01:05:36.091Z,17.33
2018-08-23T01:08:06.007Z,15.50
2018-08-23T01:10:36.244Z,16.27
2018-08-23T01:13:05.229Z,18.10
2018-08-23T01:15:34.241Z,17.87
2018-08-23T01:18:19.309Z,16.80
2018-08-23T01:20:49.824Z,17.77
2018-08-23T01:23:18.859Z,20.83
2018-08-23T01:25:48.918Z,17.70
2018-08-23T01:28:18.102Z,18.07
2018-08-23T01:30:48.190Z,18.77
2018-08-23T01:33:19.383Z,17.57
2018-08-23T01:35:49.706Z,18.50
2018-08-23T01:38:19.107Z,17.47
2018-08-23T01:40:48.346Z,19.53
2018-08-23T01:43:17.452Z,16.50
2018-08-23T01:45:46.400Z,17.93
2018-08-23T01:48:15.645Z,18.77
2018-08-23T01:50:44.798Z,18.73
2018-08-23T01:53:13.845Z,19.47
2018-08-23T01:55:43.141Z,18.73
2018-08-23T01:58:13.107Z,16.73
2018-08-23T02:00:42.497Z,16.57
2018-08-23T02:03:11.610Z,17.53
2018-08-23T02:05:42.952Z,17.67
2018-08-23T02:08:11.949Z,16.67
2018-08-23T02:10:41.229Z,17.57
2018-08-23T02:13:15.385Z,17.67
2018-08-23T02:15:50.850Z,19.07
2018-08-23T02:18:20.356Z,17.20
2018-08-23T02:20:55.423Z,17.50
2018-08-23T02:23:24.771Z,18.47
2018-08-23T02:25:53.817Z,19.37
2018-08-23T02:28:23.306Z,17.80
2018-08-23T02:30:54.273Z,20.63
2018-08-23T02:33:23.797Z,18.03
2018-08-23T02:36:22.773Z,19.50
2018-08-23T02:39:05.180Z,19.10
2018-08-23T02:41:34.455Z,19.73
2018-08-23T02:44:03.711Z,20.90
2018-08-23T02:46:33.655Z,20.43
2018-08-23T02:49:02.947Z,21.10
2018-08-23T02:51:44.745Z,20.43
2018-08-23T02:54:15.276Z,19.30
2018-08-23T02:56:50.998Z,18.07
2018-08-23T02:59:20.232Z,19.80
2018-08-23T03:01:50.429Z,19.03
2018-08-23T03:04:20.812Z,18.27
2018-08-23T03:06:53.313Z,20.30
2018-08-23T03:09:25.256Z,20.13
2018-08-23T03:11:56.590Z,20.00
2018-08-23T03:14:26.396Z,18.37
2018-08-23T03:17:37.781Z,19.93
2018-08-23T03:20:12.136Z,21.53
2018-08-23T03:22:42.288Z,20.20
2018-08-23T03:25:12.773Z,19.67
2018-08-23T03:27:41.961Z,19.90
2018-08-23T03:30:12.315Z,20.00
2018-08-23T03:32:41.413Z,19.97
2018-08-23T03:35:10.727Z,21.43
2018-08-23T03:37:39.749Z,21.30
2018-08-23T03:40:10.345Z,20.70
2018-08-23T03:42:39.463Z,21.07
2018-08-23T03:45:14.592Z,19.80
2018-08-23T03:47:49.012Z,20.67
2018-08-23T03:50:18.341Z,19.80
2018-08-23T03:52:50.906Z,19.10
2018-08-23T03:55:21.696Z,20.07
2018-08-23T03:57:51.465Z,20.10
2018-08-23T04:00:26.727Z,19.20
2018-08-23T04:02:56.426Z,19.27
2018-08-23T04:05:25.807Z,18.50
2018-08-23T04:07:54.935Z,18.90
2018-08-23T04:10:24.710Z,19.57
2018-08-23T04:12:53.888Z,19.90
2018-08-23T04:15:31.328Z,20.03
2018-08-23T04:18:13.721Z,19.60
2018-08-23T04:20:54.339Z,18.40
2018-08-23T04:23:23.550Z,20.27
2018-08-23T04:25:52.664Z,19.97
2018-08-23T04:28:21.916Z,18.57
2018-08-23T04:30:51.174Z,22.40
2018-08-23T04:33:20.596Z,22.57
2018-08-23T04:35:49.897Z,21.37
2018-08-23T04:38:19.344Z,20.33
2018-08-23T04:40:57.606Z,23.40
2018-08-23T04:43:26.626Z,21.97
2018-08-23T04:45:55.793Z,22.30
2018-08-23T04:48:24.861Z,21.50
2018-08-23T04:50:54.072Z,22.27
2018-08-23T04:53:23.111Z,21.40
2018-08-23T04:55:52.324Z,21.93
2018-08-23T04:58:21.584Z,20.10
2018-08-23T05:00:51.004Z,22.77
2018-08-23T05:03:20.221Z,22.97
2018-08-23T05:05:49.565Z,21.87
2018-08-23T05:08:18.756Z,23.73
2018-08-23T05:10:47.947Z,21.77
2018-08-23T05:13:17.430Z,24.50
2018-08-23T05:15:46.684Z,20.77
2018-08-23T05:18:15.914Z,22.67
2018-08-23T05:20:45.284Z,24.00
2018-08-23T05:23:14.716Z,21.63
2018-08-23T05:25:43.945Z,20.77
2018-08-23T05:28:17.559Z,21.33
2018-08-23T05:30:47.770Z,21.57
2018-08-23T05:33:24.535Z,20.50
2018-08-23T05:35:53.704Z,21.53
2018-08-23T05:38:23.151Z,20.53
2018-08-23T05:40:56.926Z,20.93
2018-08-23T05:43:25.897Z,23.90
2018-08-23T05:45:57.257Z,21.13
2018-08-23T05:48:32.541Z,23.70
2018-08-23T05:51:05.749Z,24.40
2018-08-23T05:53:39.285Z,25.00
2018-08-23T05:56:09.387Z,23.57
2018-08-23T05:58:39.114Z,23.57
2018-08-23T06:01:08.460Z,24.17
2018-08-23T06:03:38.002Z,22.33
2018-08-23T06:06:07.574Z,24.77
2018-08-23T06:08:37.327Z,23.67
2018-08-23T06:11:09.374Z,22.00
2018-08-23T06:13:38.593Z,22.57
2018-08-23T06:16:09.778Z,22.93
2018-08-23T06:18:38.854Z,21.73
2018-08-23T06:21:08.090Z,23.37
2018-08-23T06:23:59.344Z,24.00
2018-08-23T06:26:39.208Z,24.10
2018-08-23T06:29:09.208Z,22.80
2018-08-23T06:31:46.425Z,24.67
2018-08-23T06:34:15.386Z,23.40
2018-08-23T06:36:45.316Z,23.17
2018-08-23T06:39:14.419Z,23.40
2018-08-23T06:41:43.550Z,21.87
2018-08-23T06:44:12.792Z,23.17
2018-08-23T06:46:41.764Z,21.73
2018-08-23T06:49:10.744Z,21.97
2018-08-23T06:51:39.752Z,23.60
2018-08-23T06:54:08.735Z,21.83
2018-08-23T06:56:38.604Z,23.77
2018-08-23T06:59:09.317Z,24.87
2018-08-23T07:01:43.582Z,22.90
2018-08-23T07:04:14.334Z,21.70
2018-08-23T07:06:43.387Z,23.97
2018-08-23T07:09:15.454Z,21.93
2018-08-23T07:11:45.392Z,22.13
2018-08-23T07:14:17.244Z,21.80
2018-08-23T07:16:48.419Z,22.23
2018-08-23T07:19:27.372Z,22.83
2018-08-23T07:21:57.484Z,24.30
2018-08-23T07:24:46.570Z,22.73
2018-08-23T07:27:16.892Z,24.23
2018-08-23T07:29:48.175Z,24.17
2018-08-23T07:32:20.113Z,22.40
2018-08-23T07:34:58.311Z,23.77
2018-08-23T07:37:27.892Z,22.40
2018-08-23T07:40:03.251Z,23.10
2018-08-23T07:42:34.286Z,22.40
2018-08-23T07:45:05.701Z,22.40
2018-08-23T07:47:37.086Z,21.57
2018-08-23T07:50:08.084Z,22.87
2018-08-23T07:52:38.079Z,19.80
2018-08-23T07:55:07.953Z,20.80
2018-08-23T07:57:44.210Z,20.70
2018-08-23T08:00:39.814Z,18.70
2018-08-23T08:03:10.174Z,18.53
2018-08-23T08:05:42.383Z,17.27
2018-08-23T08:08:12.389Z,15.10
2018-08-23T08:10:42.866Z,15.37
2018-08-23T08:13:11.959Z,15.63
2018-08-23T08:15:40.990Z,15.40
2018-08-23T08:18:24.941Z,17.80
2018-08-23T08:21:04.225Z,16.10
2018-08-23T08:23:33.742Z,16.40
2018-08-23T08:26:03.342Z,17.13
2018-08-23T08:28:33.241Z,16.70
2018-08-23T08:31:02.568Z,15.23
2018-08-23T08:33:35.205Z,16.43
2018-08-23T08:36:05.249Z,14.93
2018-08-23T08:38:35.146Z,14.30
2018-08-23T08:41:04.744Z,13.80
2018-08-23T08:43:34.723Z,14.83
2018-08-23T08:46:04.471Z,13.13
2018-08-23T08:48:34.838Z,13.13
2018-08-23T08:51:20.752Z,10.70
2018-08-23T08:53:49.910Z,11.57
2018-08-23T08:56:26.136Z,11.80
2018-08-23T08:58:55.216Z,10.50
2018-08-23T09:01:24.317Z,12.30
2018-08-23T09:03:53.271Z,12.33
2018-08-23T09:06:23.827Z,11.10
2018-08-23T09:08:52.944Z,10.47
2018-08-23T09:11:23.162Z,10.00
2018-08-23T09:13:52.327Z,11.97
2018-08-23T09:16:23.841Z,12.53
2018-08-23T09:19:01.329Z,11.10
2018-08-23T09:21:31.024Z,11.20
2018-08-23T09:24:13.037Z,12.23
2018-08-23T09:26:42.389Z,10.70
2018-08-23T09:29:22.565Z,11.20
2018-08-23T09:31:51.619Z,13.20
2018-08-23T09:34:20.732Z,12.20
2018-08-23T09:36:49.704Z,11.33
2018-08-23T09:39:18.813Z,11.20
2018-08-23T09:41:47.876Z,10.73
2018-08-23T09:44:16.879Z,12.23
2018-08-23T09:46:50.490Z,11.03
2018-08-23T09:49:20.067Z,12.10
2018-08-23T09:51:49.392Z,12.73
2018-08-23T09:54:24.887Z,11.07
2018-08-23T09:56:54.254Z,11.17
2018-08-23T09:59:23.957Z,10.93
2018-08-23T10:01:58.246Z,9.10
2018-08-23T10:04:32.590Z,8.23
2018-08-23T10:07:07.080Z,9.23
2018-08-23T10:09:41.978Z,9.53
2018-08-23T10:12:16.277Z,8.93
2018-08-23T10:14:50.632Z,8.27
2018-08-23T10:17:25.088Z,8.40
2018-08-23T10:19:59.629Z,7.67
2018-08-23T10:22:37.958Z,9.20
2018-08-23T10:25:22.429Z,8.20
2018-08-23T10:27:51.780Z,7.13
2018-08-23T10:30:21.200Z,8.20
2018-08-23T10:32:50.472Z,9.37
2018-08-23T10:35:20.067Z,9.07
2018-08-23T10:37:49.397Z,7.60
2018-08-23T10:40:18.709Z,8.87
2018-08-23T10:42:48.183Z,8.40
2018-08-23T10:45:17.691Z,8.00
2018-08-23T10:47:52.452Z,7.73
2018-08-23T10:50:22.508Z,7.60
2018-08-23T10:52:52.646Z,7.43
2018-08-23T10:55:21.882Z,8.00
2018-08-23T10:57:51.041Z,7.90
2018-08-23T11:00:20.216Z,6.70
2018-08-23T11:02:49.349Z,7.00
2018-08-23T11:05:18.913Z,6.57
2018-08-23T11:07:53.409Z,7.57
2018-08-23T11:10:28.069Z,7.43
2018-08-23T11:13:02.421Z,8.23
2018-08-23T11:15:31.395Z,7.90
2018-08-23T11:18:05.716Z,8.53
2018-08-23T11:20:40.743Z,8.63
2018-08-23T11:23:10.775Z,10.20
2018-08-23T11:25:41.089Z,10.70
2018-08-23T11:28:16.908Z,9.73
2018-08-23T11:30:46.172Z,11.20
2018-08-23T11:33:16.287Z,9.97
2018-08-23T11:35:46.197Z,10.27
2018-08-23T11:38:15.563Z,10.70
2018-08-23T11:40:44.816Z,11.57
2018-08-23T11:43:14.822Z,10.83
2018-08-23T11:45:45.112Z,10.30
2018-08-23T11:48:14.116Z,10.87
2018-08-23T11:50:43.319Z,10.87
2018-08-23T11:53:12.597Z,10.13
2018-08-23T11:55:42.478Z,10.40
2018-08-23T11:58:11.724Z,10.20
2018-08-23T12:00:40.904Z,10.37
2018-08-23T12:03:10.388Z,10.60
2018-08-23T12:05:39.486Z,10.03
2018-08-23T12:08:08.651Z,9.93
2018-08-23T12:10:37.811Z,9.57
2018-08-23T12:13:06.905Z,10.00
2018-08-23T12:15:36.350Z,9.53
2018-08-23T12:18:05.728Z,8.70
2018-08-23T12:20:34.812Z,8.27
2018-08-23T12:23:04.008Z,9.33
2018-08-23T12:25:33.440Z,7.97
2018-08-23T12:28:08.239Z,7.67
2018-08-23T12:30:37.789Z,7.20
2018-08-23T12:33:08.140Z,6.60
2018-08-23T12:35:37.517Z,5.93
2018-08-23T12:38:17.621Z,6.30
2018-08-23T12:40:52.027Z,6.00
2018-08-23T12:43:25.312Z,5.70
2018-08-23T12:46:00.247Z,5.80
2018-08-23T12:48:29.409Z,5.00
2018-08-23T12:50:58.557Z,4.87
2018-08-23T12:53:28.677Z,4.57
2018-08-23T12:55:58.121Z,4.63
2018-08-23T12:58:27.222Z,5.10
2018-08-23T13:00:56.354Z,5.80
2018-08-23T13:03:25.268Z,5.57
2018-08-23T13:05:54.211Z,5.23
2018-08-23T13:08:23.276Z,4.97
2018-08-23T13:10:52.170Z,4.50
2018-08-23T13:13:21.237Z,4.13
2018-08-23T13:15:50.316Z,4.50
2018-08-23T13:18:19.283Z,3.60
2018-08-23T13:20:48.196Z,4.17
2018-08-23T13:23:17.210Z,4.30
2018-08-23T13:25:51.575Z,3.77
2018-08-23T13:28:20.804Z,4.10
2018-08-23T13:30:50.300Z,3.60
2018-08-23T13:33:21.672Z,3.50
2018-08-23T13:35:50.818Z,4.03
2018-08-23T13:38:20.388Z,3.70
2018-08-23T13:40:49.820Z,3.60
2018-08-23T13:43:18.920Z,3.30
2018-08-23T13:45:48.166Z,3.60
2018-08-23T13:48:17.195Z,3.50
2018-08-23T13:50:46.215Z,3.67
2018-08-23T13:53:15.508Z,3.83
2018-08-23T13:55:45.241Z,3.13
2018-08-23T13:58:14.415Z,3.00
2018-08-23T14:00:43.585Z,2.87
2018-08-23T14:03:12.941Z,2.47
2018-08-23T14:05:42.234Z,3.10
2018-08-23T14:08:12.351Z,3.60
2018-08-23T14:10:41.546Z,3.33
2018-08-23T14:13:10.666Z,3.80
2018-08-23T14:16:14.657Z,4.00
2018-08-23T14:18:44.324Z,3.50
2018-08-23T14:21:13.799Z,3.50
2018-08-23T14:23:43.125Z,3.60
2018-08-23T14:26:12.413Z,4.03
2018-08-23T14:28:41.615Z,3.87
2018-08-23T14:31:10.873Z,3.80
2018-08-23T14:33:40.121Z,3.70
2018-08-23T14:36:09.356Z,3.93
2018-08-23T14:38:38.848Z,4.60
2018-08-23T14:41:08.493Z,4.07
2018-08-23T14:43:38.045Z,3.40
2018-08-23T14:46:12.731Z,3.20
2018-08-23T14:48:42.234Z,3.37
2018-08-23T14:51:11.643Z,3.43
2018-08-23T14:53:41.004Z,3.30
2018-08-23T14:56:16.443Z,4.10
2018-08-23T14:58:45.498Z,3.67
2018-08-23T15:01:14.839Z,3.57
2018-08-23T15:03:43.989Z,3.30
2018-08-23T15:06:13.280Z,3.57
2018-08-23T15:08:42.441Z,3.10
2018-08-23T15:11:11.823Z,3.00
2018-08-23T15:13:42.338Z,3.50
2018-08-23T15:16:11.867Z,3.70
2018-08-23T15:18:41.260Z,3.50
2018-08-23T15:21:11.518Z,3.10
2018-08-23T15:23:41.016Z,3.37
2018-08-23T15:26:10.599Z,3.07
2018-08-23T15:28:40.736Z,3.50
2018-08-23T15:31:09.769Z,4.20
2018-08-23T15:33:39.151Z,4.23
2018-08-23T15:36:08.452Z,4.60
2018-08-23T15:38:37.646Z,4.63
2018-08-23T15:41:06.945Z,4.30
2018-08-23T15:43:36.063Z,3.63
2018-08-23T15:46:05.425Z,4.10
2018-08-23T15:48:35.018Z,3.60
2018-08-23T15:51:04.492Z,10.73
2018-08-23T15:53:33.905Z,3.23
2018-08-23T15:56:03.185Z,3.30
2018-08-23T15:58:32.968Z,4.20
2018-08-23T16:01:02.376Z,4.23
2018-08-23T16:03:32.591Z,3.63
2018-08-23T16:06:01.602Z,3.90
2018-08-23T16:08:35.191Z,4.07
2018-08-23T16:11:04.576Z,4.87
2018-08-23T16:13:34.090Z,4.40
2018-08-23T16:16:08.705Z,4.00
2018-08-23T16:18:43.016Z,4.13
2018-08-23T16:21:12.107Z,4.60
2018-08-23T16:23:41.396Z,4.37
2018-08-23T16:26:10.855Z,4.47
2018-08-23T16:28:40.846Z,4.47
2018-08-23T16:31:09.838Z,4.60
2018-08-23T16:33:38.924Z,5.20
2018-08-23T16:36:07.933Z,4.87
2018-08-23T16:38:36.959Z,4.77
2018-08-23T16:41:06.097Z,5.20
2018-08-23T16:43:35.236Z,4.40
2018-08-23T16:46:04.432Z,4.67
2018-08-23T16:48:33.727Z,5.60
2018-08-23T16:51:03.083Z,5.40
2018-08-23T16:53:32.489Z,4.90
2018-08-23T16:56:02.013Z,5.33
2018-08-23T16:58:31.260Z,5.37
2018-08-23T17:01:00.734Z,4.93
2018-08-23T17:03:29.839Z,6.10
2018-08-23T17:05:58.992Z,6.00
2018-08-23T17:08:28.120Z,6.27
2018-08-23T17:10:57.596Z,5.70
2018-08-23T17:13:32.309Z,6.50
2018-08-23T17:16:08.377Z,6.63
2018-08-23T17:18:37.801Z,5.87
2018-08-23T17:21:07.387Z,6.00
2018-08-23T17:23:37.185Z,6.07
2018-08-23T17:26:06.597Z,6.87
2018-08-23T17:28:36.438Z,5.30
2018-08-23T17:31:05.962Z,5.73
2018-08-23T17:33:35.117Z,5.20
2018-08-23T17:36:05.309Z,5.90
2018-08-23T17:38:36.517Z,4.93
2018-08-23T17:41:05.601Z,5.17
2018-08-23T17:43:34.657Z,4.83
2018-08-23T17:46:03.735Z,5.10
2018-08-23T17:48:33.012Z,4.73
2018-08-23T17:51:02.059Z,5.00
2018-08-23T17:53:31.060Z,4.30
2018-08-23T17:56:00.412Z,5.20
2018-08-23T17:58:29.664Z,5.00
2018-08-23T18:00:58.873Z,6.03
2018-08-23T18:03:28.116Z,4.60
2018-08-23T18:05:57.660Z,4.40
2018-08-23T18:08:26.814Z,4.30
2018-08-23T18:10:56.094Z,4.63
2018-08-23T18:13:25.406Z,5.13
2018-08-23T18:16:00.057Z,4.63
2018-08-23T18:18:29.577Z,4.87
2018-08-23T18:20:59.869Z,4.80
2018-08-23T18:23:29.881Z,6.97
2018-08-23T18:25:59.339Z,7.30
2018-08-23T18:28:28.772Z,7.97
2018-08-23T18:30:58.039Z,8.10
2018-08-23T18:33:27.510Z,7.80
2018-08-23T18:35:56.709Z,6.97
2018-08-23T18:38:26.025Z,8.60
2018-08-23T18:40:55.205Z,8.40
2018-08-23T18:43:24.483Z,7.67
2018-08-23T18:45:53.600Z,9.50
2018-08-23T18:48:22.778Z,7.47
2018-08-23T18:50:51.969Z,8.00
2018-08-23T18:53:22.087Z,8.70
2018-08-23T18:55:51.344Z,9.00
2018-08-23T18:58:20.525Z,8.47
2018-08-23T19:00:49.800Z,8.77
2018-08-23T19:03:18.955Z,9.93
2018-08-23T19:05:48.236Z,9.37
2018-08-23T19:08:17.249Z,9.43
2018-08-23T19:10:46.341Z,8.83
2018-08-23T19:13:16.087Z,10.37
2018-08-23T19:15:50.357Z,7.93
2018-08-23T19:18:19.625Z,10.27
2018-08-23T19:20:49.301Z,7.90
2018-08-23T19:23:19.154Z,8.70
2018-08-23T19:25:52.665Z,8.30
2018-08-23T19:28:21.948Z,8.03
2018-08-23T19:30:51.023Z,8.47
2018-08-23T19:33:20.138Z,7.63
2018-08-23T19:35:49.963Z,7.53
2018-08-23T19:38:19.254Z,7.93
2018-08-23T19:40:48.272Z,7.60
2018-08-23T19:43:18.261Z,7.80
2018-08-23T19:45:52.716Z,7.80
2018-08-23T19:48:21.896Z,7.53
2018-08-23T19:50:51.152Z,7.50
2018-08-23T19:53:20.339Z,7.33
2018-08-23T19:55:49.409Z,7.00
2018-08-23T19:58:18.453Z,7.63
2018-08-23T20:00:47.478Z,7.33
2018-08-23T20:03:16.988Z,7.20
2018-08-23T20:05:46.043Z,6.53
2018-08-23T20:08:15.228Z,7.10
2018-08-23T20:10:45.516Z,6.67
2018-08-23T20:13:14.589Z,7.03
2018-08-23T20:15:43.697Z,6.80
2018-08-23T20:18:12.859Z,6.90
2018-08-23T20:20:47.013Z,7.17
2018-08-23T20:23:16.422Z,7.37
2018-08-23T20:25:46.184Z,6.77
2018-08-23T20:28:15.584Z,7.13
2018-08-23T20:30:44.853Z,6.27
2018-08-23T20:33:14.490Z,8.03
2018-08-23T20:35:43.877Z,9.10
2018-08-23T20:38:14.162Z,8.10
2018-08-23T20:40:44.048Z,7.97
2018-08-23T20:43:13.521Z,7.40
2018-08-23T20:45:43.283Z,7.27
2018-08-23T20:48:12.726Z,7.80
2018-08-23T20:50:41.819Z,7.07
2018-08-23T20:53:11.101Z,7.40
2018-08-23T20:55:40.342Z,8.10
2018-08-23T20:58:09.478Z,7.30
2018-08-23T21:00:39.381Z,7.20
2018-08-23T21:03:08.665Z,6.87
2018-08-23T21:05:37.961Z,7.27
2018-08-23T21:08:07.195Z,7.70
2018-08-23T21:10:36.440Z,6.70
2018-08-23T21:13:06.605Z,7.37
2018-08-23T21:15:38.465Z,6.67
2018-08-23T21:18:10.248Z,6.47
2018-08-23T21:20:40.285Z,6.47
2018-08-23T21:23:09.776Z,6.83
2018-08-23T21:25:39.255Z,6.30
2018-08-23T21:28:08.690Z,5.60
2018-08-23T21:30:38.248Z,6.77
2018-08-23T21:33:07.548Z,5.83
2018-08-23T21:35:36.795Z,6.20
2018-08-23T21:38:06.431Z,6.03
2018-08-23T21:40:36.054Z,5.63
2018-08-23T21:43:05.697Z,6.20
2018-08-23T21:45:35.298Z,5.37
2018-08-23T21:48:04.712Z,4.53
2018-08-23T21:50:34.207Z,4.87
2018-08-23T21:53:03.711Z,5.43
2018-08-23T21:55:38.877Z,5.13
2018-08-23T21:58:09.845Z,5.40
2018-08-23T22:00:44.729Z,4.80
2018-08-23T22:03:15.539Z,4.70
2018-08-23T22:05:44.777Z,5.10
2018-08-23T22:08:14.196Z,4.70
2018-08-23T22:10:43.784Z,4.70
2018-08-23T22:13:13.318Z,4.57
2018-08-23T22:15:47.671Z,4.43
2018-08-23T22:18:17.959Z,4.33
2018-08-23T22:20:47.576Z,4.10
2018-08-23T22:23:17.861Z,5.20
2018-08-23T22:25:47.113Z,4.30
2018-08-23T22:28:16.531Z,4.43
2018-08-23T22:30:46.024Z,4.80
2018-08-23T22:33:15.251Z,4.07
2018-08-23T22:35:44.794Z,4.20
2018-08-23T22:38:14.614Z,4.40
2018-08-23T22:40:44.812Z,4.17
2018-08-23T22:43:14.060Z,4.23
2018-08-23T22:45:43.389Z,4.43
2018-08-23T22:48:12.815Z,4.33
2018-08-23T22:50:42.097Z,3.80
2018-08-23T22:53:11.431Z,3.70
2018-08-23T22:55:41.573Z,4.73
2018-08-23T22:58:10.830Z,4.83
2018-08-23T23:00:41.921Z,4.10
2018-08-23T23:03:16.245Z,4.47
2018-08-23T23:05:45.728Z,4.13
2018-08-23T23:08:15.100Z,4.67
2018-08-23T23:10:44.524Z,5.10
2018-08-23T23:13:13.614Z,5.27
2018-08-23T23:15:43.568Z,4.90
2018-08-23T23:18:12.892Z,4.57
2018-08-23T23:20:42.014Z,4.40
2018-08-23T23:23:11.672Z,4.87
2018-08-23T23:25:41.621Z,4.93
2018-08-23T23:28:10.763Z,4.13
2018-08-23T23:30:39.884Z,3.90
2018-08-23T23:33:09.237Z,4.87
2018-08-23T23:35:39.515Z,4.10
2018-08-23T23:38:08.781Z,4.37
2018-08-23T23:40:38.054Z,3.63
2018-08-23T23:43:07.279Z,3.93
2018-08-23T23:45:36.693Z,3.87
2018-08-23T23:48:05.960Z,4.07
2018-08-23T23:50:35.805Z,4.47
2018-08-23T23:53:05.021Z,3.70
2018-08-23T23:55:34.297Z,3.93
2018-08-23T23:58:03.644Z,3.93
